Time;durP1;ratioP1;P1;durP2;ratioP2;P2;SDS_P1;SDS_P2;PMS_P1;PMS_P2;Temp;Humidity;BMP_temperature;BMP_pressure;BME280_temperature;BME280_humidity;BME280_pressure;Samples;Min_cycle;Max_cycle;Signal;HPM_P1;HPM_P2
2023/05/19 00:01:09;;;;;;;16.20;9.80;;;;;;;8.61;76.45;102566.69;5008532;28;20035;-74
2023/05/19 00:03:39;;;;;;;18.15;10.35;;;;;;;8.62;76.38;102557.91;5030896;28;20060;-74
2023/05/19 00:06:07;;;;;;;16.30;10.60;;;;;;;8.60;76.46;102557.09;5031068;28;20021;-74
2023/05/19 00:08:33;;;;;;;15.70;10.20;;;;;;;8.60;76.51;102554.47;5030852;28;20021;-74
2023/05/19 00:11:02;;;;;;;14.35;10.57;;;;;;;8.60;77.00;102554.47;5046839;28;20049;-74
2023/05/19 00:13:28;;;;;;;14.43;10.13;;;;;;;8.64;76.96;102555.22;5047861;28;20024;-74
2023/05/19 00:15:53;;;;;;;15.70;9.80;;;;;;;8.62;77.07;102552.66;5026751;28;20080;-75
2023/05/19 00:18:19;;;;;;;14.43;10.95;;;;;;;8.58;77.04;102556.31;5046525;28;20072;-74
2023/05/19 00:20:44;;;;;;;18.85;10.43;;;;;;;8.59;77.53;102555.41;5031983;28;20047;-74
2023/05/19 00:23:17;;;;;;;14.68;10.50;;;;;;;8.56;78.77;102558.16;5030125;28;20048;-74
2023/05/19 00:25:42;;;;;;;19.05;10.77;;;;;;;8.52;78.59;102551.31;5031472;28;20112;-74
2023/05/19 00:28:07;;;;;;;15.90;10.40;;;;;;;8.48;79.27;102545.31;5028983;28;20145;-74
2023/05/19 00:30:33;;;;;;;12.18;9.98;;;;;;;8.44;79.31;102537.63;5045669;28;20603;-74
2023/05/19 00:32:58;;;;;;;14.00;10.57;;;;;;;8.47;80.23;102537.50;5033852;28;20030;-74
2023/05/19 00:35:23;;;;;;;16.48;10.68;;;;;;;8.40;80.21;102538.63;5009570;28;20057;-74
2023/05/19 00:37:49;;;;;;;15.60;10.70;;;;;;;8.40;80.88;102536.00;5010788;28;20033;-74
2023/05/19 00:40:15;;;;;;;13.00;10.00;;;;;;;8.33;80.63;102530.16;5005512;28;20033;-74
2023/05/19 00:42:40;;;;;;;14.20;10.70;;;;;;;8.24;81.30;102535.69;5030090;28;20033;-74
2023/05/19 00:45:06;;;;;;;17.15;10.75;;;;;;;8.33;81.72;102529.25;5030625;28;20410;-74
2023/05/19 00:47:31;;;;;;;15.18;9.82;;;;;;;8.27;81.39;102525.09;5028101;28;20124;-74
2023/05/19 00:49:57;;;;;;;16.33;10.13;;;;;;;8.27;81.08;102530.34;5042550;28;20402;-74
2023/05/19 00:52:23;;;;;;;15.57;9.43;;;;;;;8.26;81.56;102523.38;5030764;28;20036;-74
2023/05/19 00:54:52;;;;;;;16.45;10.13;;;;;;;8.24;82.25;102535.69;5027988;28;20030;-74
2023/05/19 00:57:18;;;;;;;14.23;10.18;;;;;;;8.20;82.03;102533.25;5029684;28;20026;-74
2023/05/19 00:59:43;;;;;;;13.05;10.13;;;;;;;8.16;82.21;102532.50;5029878;28;20043;-74
2023/05/19 01:02:08;;;;;;;13.27;9.77;;;;;;;8.17;82.32;102535.09;5027921;28;20056;-74
2023/05/19 01:04:36;;;;;;;15.15;9.68;;;;;;;8.14;82.61;102540.44;5029598;28;20045;-74
2023/05/19 01:07:02;;;;;;;13.80;9.77;;;;;;;8.12;83.15;102531.78;5027216;28;20032;-75
2023/05/19 01:09:27;;;;;;;17.52;9.73;;;;;;;8.10;83.55;102532.75;5028645;28;20018;-75
2023/05/19 01:11:53;;;;;;;16.00;10.10;;;;;;;8.10;84.33;102530.97;5030909;28;20450;-75
2023/05/19 01:14:20;;;;;;;16.23;9.73;;;;;;;8.06;85.00;102534.63;5030192;28;20035;-74
2023/05/19 01:17:04;;;;;;;13.50;9.75;;;;;;;8.04;85.52;102533.81;5030842;28;20108;-74
2023/05/19 01:19:55;;;;;;;14.63;9.48;;;;;;;8.03;85.80;102532.13;5045413;28;20029;-74
2023/05/19 01:22:53;;;;;;;11.48;9.43;;;;;;;8.00;86.53;102532.19;5021461;28;20059;-75
2023/05/19 01:25:56;;;;;;;16.85;9.18;;;;;;;7.97;87.23;102532.31;5043736;28;20033;-75
2023/05/19 01:28:51;;;;;;;17.60;9.65;;;;;;;7.96;87.72;102535.84;5018417;28;20029;-74
2023/05/19 01:31:22;;;;;;;15.02;9.52;;;;;;;7.92;88.29;102529.00;5024886;28;20059;-74
2023/05/19 01:33:52;;;;;;;14.82;9.63;;;;;;;7.92;88.54;102528.16;5029825;28;20496;-74
2023/05/19 01:36:20;;;;;;;16.33;9.90;;;;;;;7.91;89.42;102522.06;5029700;28;20029;-74
2023/05/19 01:38:51;;;;;;;13.05;8.93;;;;;;;7.91;89.20;102521.19;5029702;28;20029;-74
2023/05/19 01:41:19;;;;;;;14.57;9.10;;;;;;;7.95;89.03;102523.66;5026051;28;20445;-74
2023/05/19 01:43:47;;;;;;;18.05;9.18;;;;;;;7.93;89.22;102527.25;5027442;28;20090;-74
2023/05/19 01:46:13;;;;;;;15.25;9.05;;;;;;;7.92;89.53;102517.66;5029485;28;20026;-74
2023/05/19 01:48:39;;;;;;;15.70;8.93;;;;;;;7.91;89.39;102516.81;5029986;28;20040;-75
2023/05/19 01:51:05;;;;;;;14.48;8.60;;;;;;;7.90;89.50;102514.25;5024639;28;20115;-74
2023/05/19 01:53:32;;;;;;;15.93;9.20;;;;;;;7.92;89.75;102510.66;5027921;28;20029;-74
2023/05/19 01:55:58;;;;;;;13.02;8.77;;;;;;;7.90;89.93;102515.09;5029603;28;20025;-75
2023/05/19 01:58:35;;;;;;;12.70;8.32;;;;;;;7.93;89.82;102514.13;5028681;28;20021;-75
2023/05/19 02:01:23;;;;;;;16.50;8.85;;;;;;;7.91;89.81;102510.72;5013045;28;20048;-76
2023/05/19 02:04:11;;;;;;;16.58;9.13;;;;;;;7.91;89.82;102514.19;5028676;28;20037;-73
2023/05/19 02:07:01;;;;;;;15.23;8.50;;;;;;;7.92;89.56;102510.66;5029833;28;20100;-74
2023/05/19 02:09:53;;;;;;;12.75;9.02;;;;;;;7.91;89.42;102510.72;5029092;28;20063;-74
2023/05/19 02:12:26;;;;;;;16.37;8.80;;;;;;;7.88;90.11;102509.06;5028666;28;20037;-74
2023/05/19 02:14:56;;;;;;;16.75;8.50;;;;;;;7.83;90.25;102505.75;5029750;28;20029;-74
2023/05/19 02:17:22;;;;;;;14.95;9.00;;;;;;;7.82;90.48;102510.16;5025408;28;20025;-74
2023/05/19 02:19:47;;;;;;;14.60;8.68;;;;;;;7.80;90.75;102500.63;5027768;28;20497;-74
2023/05/19 02:22:13;;;;;;;15.20;9.25;;;;;;;7.77;90.36;102504.22;5029251;28;20026;-74
2023/05/19 02:24:40;;;;;;;13.63;9.27;;;;;;;7.76;90.53;102504.28;5024638;28;20389;-73
2023/05/19 02:27:05;;;;;;;12.15;8.45;;;;;;;7.77;90.86;102503.34;5025228;28;20121;-74
2023/05/19 02:29:30;;;;;;;13.63;9.02;;;;;;;7.72;90.89;102505.28;5045649;28;20088;-73
2023/05/19 02:31:56;;;;;;;15.93;9.70;;;;;;;7.73;91.13;102500.00;5028391;28;20021;-73
2023/05/19 02:34:30;;;;;;;15.98;8.73;;;;;;;7.72;91.24;102505.28;5029074;28;20032;-74
2023/05/19 02:36:55;;;;;;;14.48;9.05;;;;;;;7.70;91.62;102501.88;5024366;28;20034;-74
2023/05/19 02:39:20;;;;;;;15.40;9.07;;;;;;;7.65;91.58;102491.56;5027011;28;20429;-74
2023/05/19 02:41:46;;;;;;;15.80;9.30;;;;;;;7.64;91.73;102492.47;5025474;28;20043;-74
2023/05/19 02:44:11;;;;;;;12.73;9.35;;;;;;;7.65;92.07;102493.31;5043810;28;20155;-76
2023/05/19 02:46:36;;;;;;;15.45;9.60;;;;;;;7.66;91.84;102489.78;5043789;28;20025;-73
2023/05/19 02:49:02;;;;;;;14.85;9.77;;;;;;;7.61;92.18;102496.97;5028601;28;20328;-73
2023/05/19 02:51:27;;;;;;;16.20;9.18;;;;;;;7.60;92.29;102495.22;5029474;28;20548;-74
2023/05/19 02:53:52;;;;;;;14.73;9.93;;;;;;;7.53;92.54;102490.19;5030187;28;20029;-73
2023/05/19 02:56:18;;;;;;;14.27;9.98;;;;;;;7.51;92.97;102488.53;5012642;28;20049;-73
2023/05/19 02:58:43;;;;;;;16.75;9.45;;;;;;;7.46;93.26;102483.47;5021156;28;20497;-73
2023/05/19 03:01:09;;;;;;;16.70;10.30;;;;;;;7.43;93.32;102483.59;5031877;28;20065;-73
2023/05/19 03:03:35;;;;;;;15.43;9.90;;;;;;;7.42;93.59;102481.88;5032370;28;20076;-73
2023/05/19 03:06:00;;;;;;;14.07;9.82;;;;;;;7.43;93.79;102488.81;5029786;28;20017;-73
2023/05/19 03:08:26;;;;;;;14.07;9.70;;;;;;;7.38;94.03;102480.28;5027151;28;20064;-73
2023/05/19 03:10:51;;;;;;;15.65;9.70;;;;;;;7.41;93.92;102485.41;5032054;28;20036;-73
2023/05/19 03:13:23;;;;;;;16.35;9.57;;;;;;;7.39;94.60;102491.59;5031185;28;20362;-73
2023/05/19 03:15:49;;;;;;;14.93;10.85;;;;;;;7.43;94.35;102494.06;5032427;28;20342;-74
2023/05/19 03:18:15;;;;;;;13.65;9.95;;;;;;;7.34;95.15;102489.13;5033528;28;20048;-74
2023/05/19 03:20:43;;;;;;;20.63;10.70;;;;;;;7.33;95.00;102484.81;5032255;28;20079;-74
2023/05/19 03:23:09;;;;;;;12.15;9.85;;;;;;;7.32;94.94;102484.88;5031898;28;20835;-73
2023/05/19 03:25:34;;;;;;;15.68;9.93;;;;;;;7.32;95.46;102496.19;5033550;28;20045;-73
2023/05/19 03:28:02;;;;;;;18.17;10.23;;;;;;;7.19;95.11;102500.09;5030937;28;20025;-75
2023/05/19 03:30:28;;;;;;;14.45;9.52;;;;;;;7.23;94.96;102501.75;5031317;28;20394;-73
2023/05/19 03:32:53;;;;;;;14.55;10.07;;;;;;;7.18;95.42;102503.63;5031343;28;20033;-74
2023/05/19 03:35:18;;;;;;;16.98;10.68;;;;;;;7.14;95.94;102502.03;5032075;28;20430;-74
2023/05/19 03:37:43;;;;;;;15.50;10.77;;;;;;;7.08;96.04;102504.84;5048401;28;20104;-74
2023/05/19 03:40:09;;;;;;;16.25;10.30;;;;;;;7.03;95.99;102504.16;5031852;28;20029;-73
2023/05/19 03:42:35;;;;;;;17.58;11.18;;;;;;;6.99;97.12;102502.53;5029800;28;20030;-74
2023/05/19 03:45:00;;;;;;;17.88;11.52;;;;;;;6.96;97.36;102510.50;5027163;28;20521;-74
2023/05/19 03:47:26;;;;;;;20.10;11.68;;;;;;;6.94;97.66;102504.44;5032298;28;20471;-74
2023/05/19 03:49:51;;;;;;;15.07;11.25;;;;;;;6.90;97.95;102509.78;5030741;28;20082;-73
2023/05/19 03:52:17;;;;;;;13.93;10.52;;;;;;;6.86;97.70;102513.41;5031793;28;20036;-74
2023/05/19 03:54:42;;;;;;;13.10;10.48;;;;;;;6.81;98.19;102514.47;5045363;28;20486;-73
2023/05/19 03:57:09;;;;;;;17.77;11.48;;;;;;;6.78;98.87;102515.38;5030397;28;20017;-74
2023/05/19 03:59:36;;;;;;;16.38;11.77;;;;;;;6.83;99.09;102502.19;5027952;28;20037;-74
2023/05/19 04:02:01;;;;;;;15.90;11.90;;;;;;;6.82;99.07;102505.72;5030417;28;20064;-74
2023/05/19 04:04:27;;;;;;;18.77;12.07;;;;;;;6.81;99.81;102499.63;5028588;28;20081;-73
2023/05/19 04:06:53;;;;;;;17.67;11.02;;;;;;;6.78;99.60;102494.44;5030637;28;20040;-74
2023/05/19 04:09:18;;;;;;;14.95;11.20;;;;;;;6.82;100.00;102501.34;5030322;28;20033;-74
2023/05/19 04:11:43;;;;;;;15.73;11.52;;;;;;;6.82;100.00;102506.56;5030996;28;20025;-74
2023/05/19 04:14:09;;;;;;;18.05;12.15;;;;;;;6.86;100.00;102504.69;5046447;28;20120;-74
2023/05/19 04:16:34;;;;;;;15.60;11.68;;;;;;;6.86;100.00;102502.94;5031572;28;20028;-73
2023/05/19 04:19:03;;;;;;;18.60;12.32;;;;;;;6.90;100.00;102506.31;5040183;28;20084;-73
2023/05/19 04:21:28;;;;;;;21.55;12.20;;;;;;;6.93;100.00;102503.59;5011572;28;20035;-73
2023/05/19 04:23:54;;;;;;;18.88;12.43;;;;;;;6.98;100.00;102506.91;5027623;28;20037;-75
2023/05/19 04:26:21;;;;;;;19.48;12.18;;;;;;;7.05;100.00;102494.47;5030932;28;20025;-73
2023/05/19 04:28:47;;;;;;;18.27;12.00;;;;;;;7.11;99.67;102502.13;5031011;28;20482;-74
2023/05/19 04:31:15;;;;;;;16.67;11.90;;;;;;;7.23;100.00;102506.97;5030321;28;20037;-74
2023/05/19 04:33:40;;;;;;;17.80;11.80;;;;;;;7.20;99.66;102501.81;5031842;28;20104;-74
2023/05/19 04:36:09;;;;;;;16.60;12.07;;;;;;;7.22;100.00;102506.13;5029707;28;20697;-74
2023/05/19 04:38:38;;;;;;;16.90;12.15;;;;;;;7.20;100.00;102507.06;5029455;28;20025;-74
2023/05/19 04:41:05;;;;;;;19.25;12.50;;;;;;;7.18;100.00;102507.09;5029062;28;20032;-74
2023/05/19 04:43:30;;;;;;;18.50;11.88;;;;;;;7.18;100.00;102506.25;5031527;28;20026;-74
2023/05/19 04:45:56;;;;;;;22.05;13.13;;;;;;;7.23;100.00;102504.38;5031189;28;20022;-73
2023/05/19 04:48:22;;;;;;;16.77;12.18;;;;;;;7.28;100.00;102509.44;5045980;28;20120;-73
2023/05/19 04:50:48;;;;;;;18.58;12.50;;;;;;;7.28;100.00;102512.91;5029451;28;20109;-73
2023/05/19 04:53:16;;;;;;;18.65;13.68;;;;;;;7.30;100.00;102512.88;5023155;28;20025;-74
2023/05/19 04:55:51;;;;;;;20.42;13.15;;;;;;;7.32;100.00;102511.91;5023666;28;20835;-76
2023/05/19 04:58:17;;;;;;;21.80;13.27;;;;;;;7.39;100.00;102507.31;5008953;28;20018;-73
2023/05/19 05:00:42;;;;;;;23.88;13.48;;;;;;;7.39;100.00;102502.94;5026972;28;20036;-74
2023/05/19 05:03:07;;;;;;;22.77;13.75;;;;;;;7.49;100.00;102500.84;5014733;28;20057;-73
2023/05/19 05:05:33;;;;;;;17.33;12.90;;;;;;;7.51;100.00;102512.97;5028251;28;20022;-74
2023/05/19 05:08:02;;;;;;;17.38;12.77;;;;;;;7.52;99.84;102504.22;5029221;28;20029;-74
2023/05/19 05:10:27;;;;;;;22.45;13.55;;;;;;;7.60;99.65;102511.78;5005522;28;20021;-74
2023/05/19 05:12:53;;;;;;;22.58;13.18;;;;;;;7.66;99.14;102514.22;5028531;28;20616;-74
2023/05/19 05:15:19;;;;;;;18.35;13.20;;;;;;;7.67;99.02;102512.47;5026875;28;20030;-73
2023/05/19 05:17:45;;;;;;;17.90;13.30;;;;;;;7.71;98.61;102508.81;5029109;28;20064;-73
2023/05/19 05:20:11;;;;;;;22.58;13.55;;;;;;;7.75;98.57;102511.28;5005882;28;20451;-73
2023/05/19 05:22:40;;;;;;;17.80;13.77;;;;;;;7.84;98.57;102517.94;4997704;28;20496;-73
2023/05/19 05:25:07;;;;;;;18.98;13.10;;;;;;;7.88;98.05;102513.44;5023023;28;20029;-74
2023/05/19 05:27:32;;;;;;;18.60;12.77;;;;;;;7.92;98.04;102513.28;5011272;28;20066;-75
2023/05/19 05:29:58;;;;;;;17.95;13.48;;;;;;;7.97;97.14;102521.81;5028319;28;20382;-75
2023/05/19 05:32:23;;;;;;;20.65;13.35;;;;;;;8.05;97.55;102519.81;5012703;28;20033;-75
2023/05/19 05:34:51;;;;;;;19.13;12.23;;;;;;;8.09;96.94;102521.41;5029608;28;20454;-75
2023/05/19 05:37:17;;;;;;;16.70;12.73;;;;;;;8.13;96.53;102523.00;5029204;28;20390;-75
2023/05/19 05:39:42;;;;;;;19.17;13.10;;;;;;;8.21;96.47;102514.84;5029290;28;20040;-73
2023/05/19 05:42:11;;;;;;;21.17;12.85;;;;;;;8.28;96.05;102518.09;5028817;28;20040;-74
2023/05/19 05:44:36;;;;;;;18.35;12.82;;;;;;;8.34;95.14;102520.50;5029840;28;20021;-74
2023/05/19 05:47:02;;;;;;;17.35;12.52;;;;;;;8.40;94.90;102522.88;5010921;28;20503;-74
2023/05/19 05:49:28;;;;;;;20.42;12.07;;;;;;;8.42;94.15;102523.72;5028942;28;20033;-74
2023/05/19 05:51:53;;;;;;;24.05;13.02;;;;;;;8.51;94.62;102517.25;5027157;28;20044;-74
2023/05/19 05:54:21;;;;;;;18.27;12.80;;;;;;;8.54;93.89;102515.38;5028684;28;20284;-74
2023/05/19 05:56:47;;;;;;;17.45;13.35;;;;;;;8.60;93.77;102522.16;5027054;28;20036;-73
2023/05/19 05:59:13;;;;;;;18.85;12.38;;;;;;;8.62;93.15;102525.56;5010432;28;20506;-74
2023/05/19 06:01:38;;;;;;;16.15;12.50;;;;;;;8.70;93.38;102523.50;5007756;28;20045;-74
2023/05/19 06:04:04;;;;;;;18.10;12.48;;;;;;;8.76;92.90;102524.09;5027757;28;20049;-74
2023/05/19 06:06:30;;;;;;;18.00;12.07;;;;;;;8.82;91.81;102530.03;5009354;28;20036;-75
2023/05/19 06:08:55;;;;;;;17.77;12.75;;;;;;;8.92;92.75;102532.25;5017945;28;20029;-75
2023/05/19 06:11:21;;;;;;;17.88;11.70;;;;;;;9.02;91.82;102532.72;5028600;28;20384;-74
2023/05/19 06:13:46;;;;;;;20.20;12.73;;;;;;;9.11;91.65;102527.09;5027668;28;20030;-76
2023/05/19 06:16:11;;;;;;;16.95;12.18;;;;;;;9.20;91.71;102534.56;5009227;28;20021;-75
2023/05/19 06:18:37;;;;;;;20.75;12.35;;;;;;;9.28;90.96;102527.25;5018261;28;20474;-75
2023/05/19 06:21:02;;;;;;;18.52;12.00;;;;;;;9.33;89.80;102530.53;5028872;28;20064;-75
2023/05/19 06:23:33;;;;;;;17.25;11.25;;;;;;;9.43;89.12;102531.88;5029985;28;20393;-75
2023/05/19 06:25:58;;;;;;;16.52;11.27;;;;;;;9.46;88.47;102525.63;5029031;28;20029;-75
2023/05/19 06:28:23;;;;;;;22.23;11.35;;;;;;;9.53;88.38;102527.06;5034371;28;20067;-76
2023/05/19 06:30:48;;;;;;;15.95;11.15;;;;;;;9.61;88.98;102518.88;5032082;28;20052;-75
2023/05/19 06:33:14;;;;;;;18.55;10.93;;;;;;;9.70;88.15;102527.22;5032193;28;20021;-75
2023/05/19 06:35:39;;;;;;;18.65;10.93;;;;;;;9.73;87.25;102531.47;5033845;28;20021;-74
2023/05/19 06:38:05;;;;;;;17.85;11.32;;;;;;;9.82;87.95;102525.81;5032620;28;20025;-74
2023/05/19 06:40:30;;;;;;;15.27;10.73;;;;;;;9.89;86.80;102535.13;5028992;28;20060;-74
2023/05/19 06:42:55;;;;;;;15.25;10.70;;;;;;;9.97;87.04;102529.53;5033364;28;20438;-74
2023/05/19 06:45:21;;;;;;;15.52;11.52;;;;;;;10.04;86.81;102526.59;5032565;28;20458;-74
2023/05/19 06:47:49;;;;;;;19.42;10.98;;;;;;;10.12;86.54;102525.38;5032618;28;20397;-74
2023/05/19 06:50:15;;;;;;;17.17;10.88;;;;;;;10.22;85.80;102526.69;5032474;28;20033;-74
2023/05/19 06:52:40;;;;;;;19.52;10.38;;;;;;;10.33;85.69;102519.16;5030309;28;20048;-74
2023/05/19 06:55:06;;;;;;;14.95;10.45;;;;;;;10.43;85.36;102527.50;5030578;28;20155;-75
2023/05/19 06:57:31;;;;;;;15.90;10.25;;;;;;;10.50;84.51;102521.88;5023439;28;20052;-74
2023/05/19 06:59:57;;;;;;;13.98;10.68;;;;;;;10.61;83.33;102527.50;5021099;28;20112;-75
2023/05/19 07:02:23;;;;;;;15.82;9.88;;;;;;;10.77;82.18;102524.13;5030737;28;20481;-75
2023/05/19 07:04:51;;;;;;;21.52;10.63;;;;;;;10.97;82.35;102521.38;5024712;28;20037;-75
2023/05/19 07:07:16;;;;;;;15.38;10.32;;;;;;;11.14;81.07;102521.41;5025134;28;20074;-76
2023/05/19 07:09:42;;;;;;;15.02;9.40;;;;;;;11.39;80.37;102521.03;5013370;28;20486;-76
2023/05/19 07:12:07;;;;;;;15.82;10.43;;;;;;;11.48;78.29;102517.94;5030305;28;20569;-75
2023/05/19 07:14:35;;;;;;;21.02;9.82;;;;;;;11.76;78.99;102516.53;5013921;28;20056;-74
2023/05/19 07:17:00;;;;;;;15.13;9.70;;;;;;;12.07;78.21;102521.06;5013370;28;20596;-74
2023/05/19 07:19:26;;;;;;;13.82;9.63;;;;;;;12.42;77.32;102520.03;5031674;28;20021;-74
2023/05/19 07:21:51;;;;;;;12.57;8.73;;;;;;;12.70;75.68;102521.09;5031040;28;20060;-74
2023/05/19 07:24:16;;;;;;;12.57;8.25;;;;;;;12.91;72.22;102519.06;5010323;28;20034;-74
2023/05/19 07:26:42;;;;;;;13.68;8.20;;;;;;;13.07;71.74;102518.09;5026682;28;20413;-74
2023/05/19 07:29:09;;;;;;;12.38;8.38;;;;;;;13.36;71.65;102516.44;5031660;28;20387;-74
2023/05/19 07:31:34;;;;;;;11.65;8.30;;;;;;;13.52;70.41;102510.22;5032395;28;20029;-75
2023/05/19 07:34:03;;;;;;;11.77;7.45;;;;;;;14.05;70.33;102509.63;5030263;28;20458;-75
2023/05/19 07:36:28;;;;;;;12.95;7.50;;;;;;;14.27;65.93;102509.97;5030653;28;20029;-74
2023/05/19 07:38:54;;;;;;;14.43;7.93;;;;;;;14.28;64.79;102510.81;4996423;28;20025;-74
2023/05/19 07:41:20;;;;;;;15.88;7.53;;;;;;;14.44;64.76;102514.25;5010508;28;20800;-74
2023/05/19 07:43:45;;;;;;;14.75;7.05;;;;;;;14.53;63.61;102515.47;5032733;28;20028;-74
2023/05/19 07:46:11;;;;;;;15.65;7.60;;;;;;;14.56;62.68;102508.16;5031751;28;20390;-74
2023/05/19 07:48:36;;;;;;;12.57;7.25;;;;;;;14.78;64.06;102510.25;5027519;28;20025;-74
2023/05/19 07:51:01;;;;;;;12.95;7.20;;;;;;;15.16;61.80;102504.22;5029367;28;20056;-74
2023/05/19 07:53:28;;;;;;;12.05;6.85;;;;;;;15.32;61.46;102504.91;5030791;28;20060;-73
2023/05/19 07:55:54;;;;;;;9.13;6.63;;;;;;;15.46;60.86;102496.88;5029821;28;20025;-74
2023/05/19 07:58:21;;;;;;;13.00;6.45;;;;;;;15.81;59.99;102496.28;5029345;28;20053;-74
2023/05/19 08:00:46;;;;;;;9.93;6.38;;;;;;;15.95;57.42;102502.31;5030654;28;20037;-74
2023/05/19 08:03:12;;;;;;;12.07;6.00;;;;;;;15.80;57.74;102506.03;5028550;28;20680;-74
2023/05/19 08:05:37;;;;;;;11.73;6.60;;;;;;;16.00;57.35;102501.97;5029251;28;20030;-74
2023/05/19 08:08:03;;;;;;;17.50;6.53;;;;;;;16.06;55.87;102501.59;5029233;28;20035;-74
2023/05/19 08:10:28;;;;;;;10.43;6.10;;;;;;;16.29;56.78;102492.81;5022580;28;20021;-74
2023/05/19 08:12:54;;;;;;;11.27;5.35;;;;;;;16.56;55.47;102505.06;5029915;28;20033;-74
2023/05/19 08:15:20;;;;;;;11.25;5.80;;;;;;;16.57;53.91;102496.97;5030564;28;20033;-74
2023/05/19 08:17:46;;;;;;;10.85;5.72;;;;;;;16.64;53.70;102492.06;5029562;28;20018;-74
2023/05/19 08:20:11;;;;;;;9.02;5.55;;;;;;;16.78;52.96;102488.41;5029850;28;20025;-74
2023/05/19 08:22:37;;;;;;;13.45;5.93;;;;;;;17.16;52.85;102480.22;5030090;28;20520;-73
2023/05/19 08:25:04;;;;;;;11.38;5.90;;;;;;;17.52;51.88;102474.75;5028781;28;20389;-74
2023/05/19 08:27:36;;;;;;;12.35;5.53;;;;;;;17.76;51.96;102471.19;5023732;28;20031;-73
2023/05/19 08:30:01;;;;;;;9.80;5.85;;;;;;;17.91;52.56;102474.44;5030300;28;20024;-74
2023/05/19 08:32:27;;;;;;;12.45;5.65;;;;;;;17.97;50.92;102469.47;5029622;28;20029;-74
2023/05/19 08:34:52;;;;;;;11.35;5.60;;;;;;;18.16;49.88;102464.41;5029553;28;20079;-73
2023/05/19 08:37:17;;;;;;;10.52;5.55;;;;;;;18.31;50.22;102466.78;5030036;28;20027;-73
2023/05/19 08:39:43;;;;;;;12.27;5.43;;;;;;;18.54;49.33;102456.94;5029384;28;20029;-76
2023/05/19 08:42:08;;;;;;;9.18;4.80;;;;;;;18.66;47.21;102463.94;5027961;28;20434;-75
2023/05/19 08:44:36;;;;;;;11.55;5.00;;;;;;;18.82;47.60;102451.06;5024048;28;20038;-74
2023/05/19 08:47:11;;;;;;;11.13;5.38;;;;;;;19.00;46.43;102452.16;5030495;28;20100;-73
2023/05/19 08:49:44;;;;;;;12.02;5.25;;;;;;;19.21;46.58;102446.84;5030566;28;20033;-73
2023/05/19 08:52:26;;;;;;;;;;;;;;;19.69;49.15;102456.97;5029213;28;20056;-73
2023/05/19 08:55:04;;;;;;;15.88;4.75;;;;;;;19.48;45.45;102442.78;5011687;28;19916;-74
2023/05/19 08:57:31;;;;;;;13.65;4.50;;;;;;;19.69;45.52;102444.47;5012713;28;20029;-74
2023/05/19 08:59:58;;;;;;;10.38;4.68;;;;;;;19.58;43.72;102446.38;5021077;28;20034;-74
2023/05/19 09:02:24;;;;;;;8.40;4.20;;;;;;;19.93;43.54;102444.13;5009869;28;20037;-74
2023/05/19 09:04:50;;;;;;;11.77;4.07;;;;;;;20.14;41.83;102443.22;5018363;28;20053;-73
2023/05/19 09:07:15;;;;;;;7.38;3.72;;;;;;;20.23;41.60;102437.88;5026424;28;20082;-74
2023/05/19 09:09:44;;;;;;;9.35;3.85;;;;;;;20.46;41.84;102440.38;5029383;28;20040;-74
2023/05/19 09:12:10;;;;;;;8.07;3.00;;;;;;;20.88;41.09;102425.75;5011708;28;20029;-73
2023/05/19 09:14:36;;;;;;;9.63;3.15;;;;;;;20.76;40.67;102423.31;5028142;28;20084;-75
2023/05/19 09:17:02;;;;;;;9.68;3.33;;;;;;;20.52;40.46;102419.25;5022186;28;20080;-75
2023/05/19 09:19:28;;;;;;;6.95;2.90;;;;;;;20.39;38.19;102423.13;5011214;28;20026;-74
2023/05/19 09:22:03;;;;;;;8.20;3.28;;;;;;;20.48;39.79;102417.84;5006482;28;20032;-74
2023/05/19 09:24:29;;;;;;;8.27;3.25;;;;;;;20.35;39.07;102423.41;5030334;28;20029;-75
2023/05/19 09:26:58;;;;;;;6.10;2.42;;;;;;;20.18;38.94;102416.09;5011427;28;20040;-74
2023/05/19 09:29:24;;;;;;;9.95;3.10;;;;;;;20.30;38.96;102419.47;5029199;28;20087;-74
2023/05/19 09:31:59;;;;;;;7.97;2.58;;;;;;;20.30;36.58;102423.00;5010740;28;20029;-74
2023/05/19 09:34:25;;;;;;;9.13;2.83;;;;;;;20.05;36.92;102415.50;5025927;28;20025;-74
2023/05/19 09:36:52;;;;;;;7.18;2.80;;;;;;;20.02;37.97;102413.94;5030034;28;20066;-75
2023/05/19 09:39:19;;;;;;;7.03;2.25;;;;;;;20.43;37.88;102409.41;5030081;28;20041;-75
2023/05/19 09:41:45;;;;;;;10.07;3.00;;;;;;;20.53;36.00;102406.72;5028924;28;20033;-75
2023/05/19 09:44:28;;;;;;;9.60;2.58;;;;;;;20.73;37.21;102407.56;5009383;28;20056;-76
2023/05/19 09:46:54;;;;;;;9.30;2.50;;;;;;;20.92;37.00;102402.22;5009071;28;20108;-75
2023/05/19 09:49:19;;;;;;;10.60;2.45;;;;;;;21.16;34.73;102399.88;5027637;28;20285;-73
2023/05/19 09:51:45;;;;;;;5.07;2.08;;;;;;;21.19;33.94;102412.97;5030430;28;20389;-75
2023/05/19 09:54:15;;;;;;;7.63;2.28;;;;;;;21.26;34.82;102403.44;5029030;28;20025;-75
2023/05/19 09:56:40;;;;;;;7.22;2.25;;;;;;;22.28;33.71;102405.22;5026359;28;20496;-75
2023/05/19 09:59:06;;;;;;;9.10;2.88;;;;;;;22.88;31.88;102402.78;5011416;28;20029;-75
2023/05/19 10:01:32;;;;;;;7.32;2.65;;;;;;;24.20;31.17;102402.31;5025311;28;20041;-74
2023/05/19 10:03:58;;;;;;;7.85;2.45;;;;;;;24.01;29.80;102400.72;5028034;28;20045;-74
2023/05/19 10:06:27;;;;;;;9.77;2.60;;;;;;;23.16;30.54;102395.41;5028749;28;20049;-75
2023/05/19 10:08:53;;;;;;;6.20;2.38;;;;;;;22.55;33.83;102396.28;5025296;28;20033;-74
2023/05/19 10:11:20;;;;;;;6.70;2.50;;;;;;;22.19;33.71;102398.94;5028252;28;20021;-74
2023/05/19 10:13:49;;;;;;;7.13;2.47;;;;;;;21.63;32.15;102396.41;5023237;28;20426;-74
2023/05/19 10:16:15;;;;;;;7.90;2.80;;;;;;;21.31;33.83;102394.13;5019191;28;20442;-74
2023/05/19 10:18:41;;;;;;;7.50;2.60;;;;;;;21.01;34.92;102398.66;5027688;28;20108;-74
2023/05/19 10:21:08;;;;;;;8.52;2.38;;;;;;;20.88;36.29;102403.47;5027994;28;20367;-77
2023/05/19 10:23:33;;;;;;;6.63;2.17;;;;;;;20.63;34.96;102397.72;5028347;28;20029;-77
2023/05/19 10:26:03;;;;;;;9.65;3.05;;;;;;;20.38;35.87;102400.91;5029082;28;20029;-73
2023/05/19 10:28:35;;;;;;;8.48;2.67;;;;;;;20.59;34.37;102398.13;5012341;28;20021;-74
2023/05/19 10:31:03;;;;;;;6.40;2.50;;;;;;;20.25;34.31;102397.66;5026895;28;20098;-75
2023/05/19 10:34:03;;;;;;;9.27;2.50;;;;;;;19.97;36.18;102402.78;5012372;28;20029;-75
2023/05/19 10:36:57;;;;;;;6.82;2.72;;;;;;;19.95;35.71;102404.75;5020953;28;20116;-75
2023/05/19 10:39:31;;;;;;;9.38;2.40;;;;;;;19.92;35.90;102390.84;5023243;28;20029;-75
2023/05/19 10:42:07;;;;;;;7.90;2.97;;;;;;;20.17;37.09;102387.66;5019929;28;20014;-75
2023/05/19 10:45:02;;;;;;;7.50;3.03;;;;;;;20.51;35.72;102385.47;5013013;28;20493;-74
2023/05/19 10:47:28;;;;;;;7.55;2.55;;;;;;;20.61;36.46;102374.78;5021464;28;20029;-74
2023/05/19 10:49:54;;;;;;;7.45;2.50;;;;;;;20.80;37.27;102369.38;5026871;28;20029;-75
2023/05/19 10:52:25;;;;;;;6.63;2.88;;;;;;;20.54;35.20;102387.88;5006150;28;20029;-74
2023/05/19 10:54:53;;;;;;;7.13;3.00;;;;;;;20.44;34.58;102379.00;5026475;28;20025;-74
2023/05/19 10:57:24;;;;;;;8.40;2.67;;;;;;;20.63;34.85;102373.66;5027857;28;20080;-73
2023/05/19 10:59:51;;;;;;;9.15;2.90;;;;;;;21.02;35.47;102370.91;5011162;28;20405;-73
2023/05/19 11:02:36;;;;;;;7.32;3.22;;;;;;;21.33;35.56;102371.56;5026126;28;20152;-73
2023/05/19 11:05:09;;;;;;;8.80;3.13;;;;;;;21.21;36.10;102370.88;5019610;28;20169;-73
2023/05/19 11:07:34;;;;;;;7.90;3.05;;;;;;;21.10;33.78;102365.69;5026825;28;20037;-73
2023/05/19 11:10:04;;;;;;;8.65;3.10;;;;;;;21.18;34.39;102373.81;5027818;28;20032;-73
2023/05/19 11:12:42;;;;;;;7.40;2.47;;;;;;;21.01;33.92;102369.22;5015415;28;20133;-73
2023/05/19 11:15:14;;;;;;;9.10;2.55;;;;;;;21.16;34.44;102365.09;5010717;28;20026;-73
2023/05/19 11:17:41;;;;;;;11.15;2.70;;;;;;;20.86;34.82;102368.84;5012885;28;20048;-74
2023/05/19 11:20:11;;;;;;;6.82;3.00;;;;;;;20.68;34.84;102369.69;5010703;28;20510;-73
2023/05/19 11:22:38;;;;;;;7.55;2.60;;;;;;;20.63;35.05;102368.28;5002504;28;20029;-74